sensor_id;sensor_type;location;lat;lon;timestamp;P1;durP1;ratioP1;P2;durP2;ratioP2
30647;SDS011;17683;53.360;9.736;2023-05-07T00:01:36;16.33;;;13.70;;
30647;SDS011;17683;53.360;9.736;2023-05-07T00:04:02;17.88;;;14.02;;
30647;SDS011;17683;53.360;9.736;2023-05-07T00:06:28;18.23;;;13.40;;
30647;SDS011;17683;53.360;9.736;2023-05-07T00:08:56;18.90;;;14.85;;
30647;SDS011;17683;53.360;9.736;2023-05-07T00:11:21;19.10;;;13.88;;
30647;SDS011;17683;53.360;9.736;2023-05-07T00:13:47;20.42;;;13.43;;
30647;SDS011;17683;53.360;9.736;2023-05-07T00:16:13;19.13;;;14.18;;
30647;SDS011;17683;53.360;9.736;2023-05-07T00:18:39;20.48;;;14.50;;
30647;SDS011;17683;53.360;9.736;2023-05-07T00:21:05;17.73;;;13.20;;
30647;SDS011;17683;53.360;9.736;2023-05-07T00:23:30;22.73;;;14.80;;
30647;SDS011;17683;53.360;9.736;2023-05-07T00:25:56;15.73;;;12.07;;
30647;SDS011;17683;53.360;9.736;2023-05-07T00:28:22;16.73;;;13.20;;
30647;SDS011;17683;53.360;9.736;2023-05-07T00:30:47;18.08;;;13.13;;
30647;SDS011;17683;53.360;9.736;2023-05-07T00:33:13;17.23;;;12.93;;
30647;SDS011;17683;53.360;9.736;2023-05-07T00:35:39;17.20;;;13.15;;
30647;SDS011;17683;53.360;9.736;2023-05-07T00:38:04;16.83;;;13.70;;
30647;SDS011;17683;53.360;9.736;2023-05-07T00:40:30;16.23;;;12.88;;
30647;SDS011;17683;53.360;9.736;2023-05-07T00:42:56;17.17;;;13.13;;
30647;SDS011;17683;53.360;9.736;2023-05-07T00:45:23;15.85;;;12.82;;
30647;SDS011;17683;53.360;9.736;2023-05-07T00:47:53;17.27;;;13.50;;
30647;SDS011;17683;53.360;9.736;2023-05-07T00:50:20;16.00;;;12.73;;
30647;SDS011;17683;53.360;9.736;2023-05-07T00:52:46;17.38;;;13.20;;
30647;SDS011;17683;53.360;9.736;2023-05-07T00:55:12;15.43;;;12.18;;
30647;SDS011;17683;53.360;9.736;2023-05-07T00:57:39;14.73;;;11.43;;
30647;SDS011;17683;53.360;9.736;2023-05-07T01:00:06;14.90;;;11.48;;
30647;SDS011;17683;53.360;9.736;2023-05-07T01:02:34;14.27;;;10.70;;
30647;SDS011;17683;53.360;9.736;2023-05-07T01:05:01;12.95;;;10.45;;
30647;SDS011;17683;53.360;9.736;2023-05-07T01:07:29;15.32;;;11.40;;
30647;SDS011;17683;53.360;9.736;2023-05-07T01:09:55;12.35;;;10.27;;
30647;SDS011;17683;53.360;9.736;2023-05-07T01:12:21;11.90;;;9.73;;
30647;SDS011;17683;53.360;9.736;2023-05-07T01:14:47;11.90;;;9.85;;
30647;SDS011;17683;53.360;9.736;2023-05-07T01:17:15;12.05;;;9.60;;
30647;SDS011;17683;53.360;9.736;2023-05-07T01:19:41;12.23;;;10.55;;
30647;SDS011;17683;53.360;9.736;2023-05-07T01:22:07;11.18;;;9.23;;
30647;SDS011;17683;53.360;9.736;2023-05-07T01:24:34;12.82;;;10.07;;
30647;SDS011;17683;53.360;9.736;2023-05-07T01:27:01;10.60;;;8.88;;
30647;SDS011;17683;53.360;9.736;2023-05-07T01:29:27;12.73;;;9.52;;
30647;SDS011;17683;53.360;9.736;2023-05-07T01:31:54;14.02;;;9.63;;
30647;SDS011;17683;53.360;9.736;2023-05-07T01:34:21;10.43;;;8.63;;
30647;SDS011;17683;53.360;9.736;2023-05-07T01:36:50;11.10;;;9.65;;
30647;SDS011;17683;53.360;9.736;2023-05-07T01:39:17;12.45;;;9.32;;
30647;SDS011;17683;53.360;9.736;2023-05-07T01:41:43;12.20;;;9.45;;
30647;SDS011;17683;53.360;9.736;2023-05-07T01:44:10;12.13;;;9.30;;
30647;SDS011;17683;53.360;9.736;2023-05-07T01:46:37;10.75;;;9.10;;
30647;SDS011;17683;53.360;9.736;2023-05-07T01:49:03;11.52;;;10.10;;
30647;SDS011;17683;53.360;9.736;2023-05-07T01:51:29;11.98;;;10.02;;
30647;SDS011;17683;53.360;9.736;2023-05-07T01:53:55;12.38;;;9.63;;
30647;SDS011;17683;53.360;9.736;2023-05-07T01:56:21;10.60;;;9.20;;
30647;SDS011;17683;53.360;9.736;2023-05-07T01:58:47;11.07;;;9.73;;
30647;SDS011;17683;53.360;9.736;2023-05-07T02:01:13;13.23;;;10.73;;
30647;SDS011;17683;53.360;9.736;2023-05-07T02:03:39;11.88;;;10.48;;
30647;SDS011;17683;53.360;9.736;2023-05-07T02:06:05;12.52;;;10.98;;
30647;SDS011;17683;53.360;9.736;2023-05-07T02:08:30;11.90;;;10.52;;
30647;SDS011;17683;53.360;9.736;2023-05-07T02:10:56;12.77;;;11.02;;
30647;SDS011;17683;53.360;9.736;2023-05-07T02:13:22;13.18;;;10.75;;
30647;SDS011;17683;53.360;9.736;2023-05-07T02:15:49;12.57;;;11.15;;
30647;SDS011;17683;53.360;9.736;2023-05-07T02:18:16;12.98;;;9.95;;
30647;SDS011;17683;53.360;9.736;2023-05-07T02:20:42;10.77;;;9.45;;
30647;SDS011;17683;53.360;9.736;2023-05-07T02:23:08;12.15;;;10.27;;
30647;SDS011;17683;53.360;9.736;2023-05-07T02:25:34;12.45;;;10.15;;
30647;SDS011;17683;53.360;9.736;2023-05-07T02:27:59;12.57;;;10.35;;
30647;SDS011;17683;53.360;9.736;2023-05-07T02:30:25;12.90;;;10.35;;
30647;SDS011;17683;53.360;9.736;2023-05-07T02:32:51;13.07;;;10.15;;
30647;SDS011;17683;53.360;9.736;2023-05-07T02:35:17;11.77;;;10.45;;
30647;SDS011;17683;53.360;9.736;2023-05-07T02:37:43;11.18;;;9.60;;
30647;SDS011;17683;53.360;9.736;2023-05-07T02:40:08;10.38;;;9.15;;
30647;SDS011;17683;53.360;9.736;2023-05-07T02:42:35;11.45;;;10.23;;
30647;SDS011;17683;53.360;9.736;2023-05-07T02:45:00;12.10;;;10.23;;
30647;SDS011;17683;53.360;9.736;2023-05-07T02:47:26;11.10;;;9.52;;
30647;SDS011;17683;53.360;9.736;2023-05-07T02:49:53;12.80;;;9.85;;
30647;SDS011;17683;53.360;9.736;2023-05-07T02:52:19;11.68;;;10.48;;
30647;SDS011;17683;53.360;9.736;2023-05-07T02:54:45;11.23;;;9.57;;
30647;SDS011;17683;53.360;9.736;2023-05-07T02:57:11;13.80;;;10.57;;
30647;SDS011;17683;53.360;9.736;2023-05-07T02:59:37;12.57;;;9.90;;
30647;SDS011;17683;53.360;9.736;2023-05-07T03:02:02;13.00;;;9.88;;
30647;SDS011;17683;53.360;9.736;2023-05-07T03:04:28;11.48;;;10.18;;
30647;SDS011;17683;53.360;9.736;2023-05-07T03:06:54;11.65;;;10.00;;
30647;SDS011;17683;53.360;9.736;2023-05-07T03:09:20;10.50;;;9.20;;
30647;SDS011;17683;53.360;9.736;2023-05-07T03:11:45;13.77;;;9.57;;
30647;SDS011;17683;53.360;9.736;2023-05-07T03:14:11;12.50;;;10.20;;
30647;SDS011;17683;53.360;9.736;2023-05-07T03:16:37;12.48;;;10.15;;
30647;SDS011;17683;53.360;9.736;2023-05-07T03:19:03;11.52;;;9.88;;
30647;SDS011;17683;53.360;9.736;2023-05-07T03:21:29;12.70;;;10.70;;
30647;SDS011;17683;53.360;9.736;2023-05-07T03:23:55;11.07;;;9.85;;
30647;SDS011;17683;53.360;9.736;2023-05-07T03:26:21;13.10;;;10.23;;
30647;SDS011;17683;53.360;9.736;2023-05-07T03:28:47;13.10;;;10.48;;
30647;SDS011;17683;53.360;9.736;2023-05-07T03:31:12;12.88;;;11.23;;
30647;SDS011;17683;53.360;9.736;2023-05-07T03:33:42;12.60;;;11.25;;
30647;SDS011;17683;53.360;9.736;2023-05-07T03:36:18;13.05;;;11.10;;
30647;SDS011;17683;53.360;9.736;2023-05-07T03:38:44;12.15;;;10.55;;
30647;SDS011;17683;53.360;9.736;2023-05-07T03:41:10;12.13;;;10.68;;
30647;SDS011;17683;53.360;9.736;2023-05-07T03:43:36;14.45;;;10.75;;
30647;SDS011;17683;53.360;9.736;2023-05-07T03:46:02;13.75;;;11.70;;
30647;SDS011;17683;53.360;9.736;2023-05-07T03:48:27;15.73;;;11.88;;
30647;SDS011;17683;53.360;9.736;2023-05-07T03:50:53;16.25;;;12.32;;
30647;SDS011;17683;53.360;9.736;2023-05-07T03:53:19;14.60;;;11.90;;
30647;SDS011;17683;53.360;9.736;2023-05-07T03:55:45;13.40;;;11.02;;
30647;SDS011;17683;53.360;9.736;2023-05-07T03:58:10;13.82;;;11.77;;
30647;SDS011;17683;53.360;9.736;2023-05-07T04:00:36;17.50;;;12.27;;
30647;SDS011;17683;53.360;9.736;2023-05-07T04:03:05;16.13;;;11.55;;
30647;SDS011;17683;53.360;9.736;2023-05-07T04:05:31;16.02;;;12.75;;
30647;SDS011;17683;53.360;9.736;2023-05-07T04:07:57;17.02;;;12.88;;
30647;SDS011;17683;53.360;9.736;2023-05-07T04:10:24;15.07;;;12.23;;
30647;SDS011;17683;53.360;9.736;2023-05-07T04:12:49;15.85;;;11.63;;
30647;SDS011;17683;53.360;9.736;2023-05-07T04:15:15;13.55;;;11.43;;
30647;SDS011;17683;53.360;9.736;2023-05-07T04:17:41;14.43;;;12.00;;
30647;SDS011;17683;53.360;9.736;2023-05-07T04:20:10;15.43;;;11.98;;
30647;SDS011;17683;53.360;9.736;2023-05-07T04:22:39;17.42;;;13.43;;
30647;SDS011;17683;53.360;9.736;2023-05-07T04:25:05;18.10;;;13.73;;
30647;SDS011;17683;53.360;9.736;2023-05-07T04:27:33;17.05;;;11.88;;
30647;SDS011;17683;53.360;9.736;2023-05-07T04:29:58;15.68;;;12.77;;
30647;SDS011;17683;53.360;9.736;2023-05-07T04:32:25;14.95;;;11.93;;
30647;SDS011;17683;53.360;9.736;2023-05-07T04:34:51;14.95;;;12.70;;
30647;SDS011;17683;53.360;9.736;2023-05-07T04:37:17;16.48;;;12.80;;
30647;SDS011;17683;53.360;9.736;2023-05-07T04:39:43;14.88;;;12.45;;
30647;SDS011;17683;53.360;9.736;2023-05-07T04:42:09;14.90;;;11.43;;
30647;SDS011;17683;53.360;9.736;2023-05-07T04:44:39;15.82;;;13.50;;
30647;SDS011;17683;53.360;9.736;2023-05-07T04:47:05;17.27;;;12.55;;
30647;SDS011;17683;53.360;9.736;2023-05-07T04:49:31;13.07;;;11.63;;
30647;SDS011;17683;53.360;9.736;2023-05-07T04:51:57;18.08;;;13.80;;
30647;SDS011;17683;53.360;9.736;2023-05-07T04:54:22;16.27;;;13.43;;
30647;SDS011;17683;53.360;9.736;2023-05-07T04:56:48;16.77;;;12.98;;
30647;SDS011;17683;53.360;9.736;2023-05-07T04:59:13;16.40;;;12.70;;
30647;SDS011;17683;53.360;9.736;2023-05-07T05:01:39;16.55;;;13.05;;
30647;SDS011;17683;53.360;9.736;2023-05-07T05:04:05;16.90;;;13.13;;
30647;SDS011;17683;53.360;9.736;2023-05-07T05:06:31;16.00;;;12.77;;
30647;SDS011;17683;53.360;9.736;2023-05-07T05:08:57;17.58;;;13.35;;
30647;SDS011;17683;53.360;9.736;2023-05-07T05:11:22;14.73;;;12.60;;
30647;SDS011;17683;53.360;9.736;2023-05-07T05:13:48;17.30;;;12.13;;
30647;SDS011;17683;53.360;9.736;2023-05-07T05:16:14;16.55;;;13.15;;
30647;SDS011;17683;53.360;9.736;2023-05-07T05:18:40;17.08;;;12.57;;
30647;SDS011;17683;53.360;9.736;2023-05-07T05:21:06;14.32;;;11.90;;
30647;SDS011;17683;53.360;9.736;2023-05-07T05:23:32;14.90;;;11.88;;
30647;SDS011;17683;53.360;9.736;2023-05-07T05:25:58;15.32;;;12.70;;
30647;SDS011;17683;53.360;9.736;2023-05-07T05:28:23;14.13;;;11.75;;
30647;SDS011;17683;53.360;9.736;2023-05-07T05:30:49;12.85;;;10.90;;
30647;SDS011;17683;53.360;9.736;2023-05-07T05:33:15;14.50;;;11.43;;
30647;SDS011;17683;53.360;9.736;2023-05-07T05:35:41;13.02;;;11.35;;
30647;SDS011;17683;53.360;9.736;2023-05-07T05:38:07;12.85;;;11.00;;
30647;SDS011;17683;53.360;9.736;2023-05-07T05:40:33;14.75;;;11.73;;
30647;SDS011;17683;53.360;9.736;2023-05-07T05:42:59;16.42;;;12.02;;
30647;SDS011;17683;53.360;9.736;2023-05-07T05:45:25;15.98;;;12.05;;
30647;SDS011;17683;53.360;9.736;2023-05-07T05:47:51;15.27;;;11.65;;
30647;SDS011;17683;53.360;9.736;2023-05-07T05:50:16;17.40;;;12.93;;
30647;SDS011;17683;53.360;9.736;2023-05-07T05:52:42;18.17;;;12.55;;
30647;SDS011;17683;53.360;9.736;2023-05-07T05:55:08;18.95;;;12.90;;
30647;SDS011;17683;53.360;9.736;2023-05-07T05:57:34;17.27;;;12.68;;
30647;SDS011;17683;53.360;9.736;2023-05-07T06:00:01;17.92;;;12.63;;
30647;SDS011;17683;53.360;9.736;2023-05-07T06:02:27;16.27;;;12.52;;
30647;SDS011;17683;53.360;9.736;2023-05-07T06:04:53;17.50;;;12.60;;
30647;SDS011;17683;53.360;9.736;2023-05-07T06:07:19;16.38;;;13.18;;
30647;SDS011;17683;53.360;9.736;2023-05-07T06:09:44;16.83;;;12.00;;
30647;SDS011;17683;53.360;9.736;2023-05-07T06:12:11;17.70;;;13.82;;
30647;SDS011;17683;53.360;9.736;2023-05-07T06:14:37;13.63;;;11.70;;
30647;SDS011;17683;53.360;9.736;2023-05-07T06:17:02;15.00;;;11.45;;
30647;SDS011;17683;53.360;9.736;2023-05-07T06:19:28;15.55;;;11.43;;
30647;SDS011;17683;53.360;9.736;2023-05-07T06:21:54;16.98;;;12.90;;
30647;SDS011;17683;53.360;9.736;2023-05-07T06:24:21;16.60;;;12.70;;
30647;SDS011;17683;53.360;9.736;2023-05-07T06:26:47;16.25;;;12.90;;
30647;SDS011;17683;53.360;9.736;2023-05-07T06:29:13;16.95;;;11.45;;
30647;SDS011;17683;53.360;9.736;2023-05-07T06:31:39;15.45;;;10.77;;
30647;SDS011;17683;53.360;9.736;2023-05-07T06:34:04;13.82;;;11.60;;
30647;SDS011;17683;53.360;9.736;2023-05-07T06:36:30;13.73;;;10.20;;
30647;SDS011;17683;53.360;9.736;2023-05-07T06:38:56;15.85;;;11.25;;
30647;SDS011;17683;53.360;9.736;2023-05-07T06:41:22;16.25;;;11.50;;
30647;SDS011;17683;53.360;9.736;2023-05-07T06:43:47;13.88;;;10.63;;
30647;SDS011;17683;53.360;9.736;2023-05-07T06:46:13;15.52;;;11.43;;
30647;SDS011;17683;53.360;9.736;2023-05-07T06:48:39;13.60;;;10.55;;
30647;SDS011;17683;53.360;9.736;2023-05-07T06:51:04;12.68;;;10.75;;
30647;SDS011;17683;53.360;9.736;2023-05-07T06:53:30;15.73;;;11.25;;
30647;SDS011;17683;53.360;9.736;2023-05-07T06:55:56;13.82;;;10.45;;
30647;SDS011;17683;53.360;9.736;2023-05-07T06:58:22;15.88;;;10.63;;
30647;SDS011;17683;53.360;9.736;2023-05-07T07:00:48;13.68;;;10.95;;
30647;SDS011;17683;53.360;9.736;2023-05-07T07:03:13;12.70;;;10.80;;
30647;SDS011;17683;53.360;9.736;2023-05-07T07:05:42;13.40;;;10.00;;
30647;SDS011;17683;53.360;9.736;2023-05-07T07:08:09;14.15;;;10.35;;
30647;SDS011;17683;53.360;9.736;2023-05-07T07:10:35;15.60;;;10.50;;
30647;SDS011;17683;53.360;9.736;2023-05-07T07:13:01;14.55;;;10.00;;
30647;SDS011;17683;53.360;9.736;2023-05-07T07:15:26;14.93;;;10.57;;
30647;SDS011;17683;53.360;9.736;2023-05-07T07:17:52;14.10;;;10.15;;
30647;SDS011;17683;53.360;9.736;2023-05-07T07:20:18;11.82;;;9.32;;
30647;SDS011;17683;53.360;9.736;2023-05-07T07:22:43;13.07;;;10.13;;
30647;SDS011;17683;53.360;9.736;2023-05-07T07:25:09;13.45;;;10.18;;
30647;SDS011;17683;53.360;9.736;2023-05-07T07:27:36;13.50;;;9.52;;
30647;SDS011;17683;53.360;9.736;2023-05-07T07:30:02;13.35;;;9.85;;
30647;SDS011;17683;53.360;9.736;2023-05-07T07:32:28;12.48;;;9.52;;
30647;SDS011;17683;53.360;9.736;2023-05-07T07:34:53;10.90;;;9.15;;
30647;SDS011;17683;53.360;9.736;2023-05-07T07:37:19;13.27;;;9.32;;
30647;SDS011;17683;53.360;9.736;2023-05-07T07:39:45;8.85;;;7.90;;
30647;SDS011;17683;53.360;9.736;2023-05-07T07:42:11;15.40;;;8.68;;
30647;SDS011;17683;53.360;9.736;2023-05-07T07:44:36;18.13;;;8.93;;
30647;SDS011;17683;53.360;9.736;2023-05-07T07:47:04;13.88;;;10.40;;
30647;SDS011;17683;53.360;9.736;2023-05-07T07:49:30;10.70;;;8.32;;
30647;SDS011;17683;53.360;9.736;2023-05-07T07:51:55;10.27;;;8.20;;
30647;SDS011;17683;53.360;9.736;2023-05-07T07:54:21;10.00;;;7.85;;
30647;SDS011;17683;53.360;9.736;2023-05-07T07:56:47;10.95;;;8.50;;
30647;SDS011;17683;53.360;9.736;2023-05-07T07:59:12;11.68;;;9.13;;
30647;SDS011;17683;53.360;9.736;2023-05-07T08:01:42;9.68;;;7.68;;
30647;SDS011;17683;53.360;9.736;2023-05-07T08:04:08;10.43;;;8.30;;
30647;SDS011;17683;53.360;9.736;2023-05-07T08:06:34;10.25;;;7.75;;
30647;SDS011;17683;53.360;9.736;2023-05-07T08:08:59;9.60;;;7.90;;
30647;SDS011;17683;53.360;9.736;2023-05-07T08:11:25;8.65;;;7.63;;
30647;SDS011;17683;53.360;9.736;2023-05-07T08:13:51;10.63;;;7.40;;
30647;SDS011;17683;53.360;9.736;2023-05-07T08:16:17;9.40;;;7.43;;
30647;SDS011;17683;53.360;9.736;2023-05-07T08:18:43;11.93;;;7.70;;
30647;SDS011;17683;53.360;9.736;2023-05-07T08:21:09;9.07;;;7.07;;
30647;SDS011;17683;53.360;9.736;2023-05-07T08:23:35;10.43;;;7.18;;
30647;SDS011;17683;53.360;9.736;2023-05-07T08:26:01;8.57;;;7.65;;
30647;SDS011;17683;53.360;9.736;2023-05-07T08:28:27;8.38;;;6.78;;
30647;SDS011;17683;53.360;9.736;2023-05-07T08:30:53;11.23;;;8.10;;
30647;SDS011;17683;53.360;9.736;2023-05-07T08:33:18;11.55;;;7.35;;
30647;SDS011;17683;53.360;9.736;2023-05-07T08:35:44;9.60;;;7.85;;
30647;SDS011;17683;53.360;9.736;2023-05-07T08:38:10;8.18;;;7.00;;
30647;SDS011;17683;53.360;9.736;2023-05-07T08:40:37;10.43;;;7.93;;
30647;SDS011;17683;53.360;9.736;2023-05-07T08:43:07;7.82;;;6.90;;
30647;SDS011;17683;53.360;9.736;2023-05-07T08:45:34;10.30;;;7.68;;
30647;SDS011;17683;53.360;9.736;2023-05-07T08:48:05;10.68;;;7.95;;
30647;SDS011;17683;53.360;9.736;2023-05-07T08:53:02;10.18;;;7.47;;
30647;SDS011;17683;53.360;9.736;2023-05-07T08:55:29;10.10;;;7.88;;
30647;SDS011;17683;53.360;9.736;2023-05-07T08:57:55;9.82;;;7.95;;
30647;SDS011;17683;53.360;9.736;2023-05-07T09:00:21;9.02;;;7.35;;
30647;SDS011;17683;53.360;9.736;2023-05-07T09:02:47;8.52;;;6.78;;
30647;SDS011;17683;53.360;9.736;2023-05-07T09:05:13;10.38;;;7.55;;
30647;SDS011;17683;53.360;9.736;2023-05-07T09:07:39;7.93;;;6.82;;
30647;SDS011;17683;53.360;9.736;2023-05-07T09:10:04;9.40;;;7.13;;
30647;SDS011;17683;53.360;9.736;2023-05-07T09:12:31;7.80;;;7.03;;
30647;SDS011;17683;53.360;9.736;2023-05-07T09:14:57;8.93;;;8.02;;
30647;SDS011;17683;53.360;9.736;2023-05-07T09:17:24;11.32;;;7.68;;
30647;SDS011;17683;53.360;9.736;2023-05-07T09:19:50;7.47;;;6.53;;
30647;SDS011;17683;53.360;9.736;2023-05-07T09:22:15;8.32;;;7.05;;
30647;SDS011;17683;53.360;9.736;2023-05-07T09:24:46;9.45;;;8.00;;
30647;SDS011;17683;53.360;9.736;2023-05-07T09:27:13;10.32;;;8.13;;
30647;SDS011;17683;53.360;9.736;2023-05-07T09:29:38;10.65;;;7.78;;
30647;SDS011;17683;53.360;9.736;2023-05-07T09:32:05;9.40;;;6.78;;
30647;SDS011;17683;53.360;9.736;2023-05-07T09:34:31;9.20;;;7.68;;
30647;SDS011;17683;53.360;9.736;2023-05-07T09:37:01;9.60;;;7.20;;
30647;SDS011;17683;53.360;9.736;2023-05-07T09:39:38;8.57;;;7.10;;
30647;SDS011;17683;53.360;9.736;2023-05-07T09:42:07;8.35;;;7.10;;
30647;SDS011;17683;53.360;9.736;2023-05-07T09:44:33;7.72;;;6.07;;
30647;SDS011;17683;53.360;9.736;2023-05-07T09:47:00;8.57;;;6.45;;
30647;SDS011;17683;53.360;9.736;2023-05-07T09:49:28;8.20;;;6.93;;
30647;SDS011;17683;53.360;9.736;2023-05-07T09:51:55;7.65;;;5.55;;
30647;SDS011;17683;53.360;9.736;2023-05-07T09:54:22;8.18;;;6.30;;
30647;SDS011;17683;53.360;9.736;2023-05-07T09:56:48;9.27;;;6.35;;
30647;SDS011;17683;53.360;9.736;2023-05-07T09:59:14;10.05;;;6.00;;
30647;SDS011;17683;53.360;9.736;2023-05-07T10:01:42;6.75;;;6.05;;
30647;SDS011;17683;53.360;9.736;2023-05-07T10:04:09;8.13;;;6.10;;
30647;SDS011;17683;53.360;9.736;2023-05-07T10:06:36;10.48;;;6.63;;
30647;SDS011;17683;53.360;9.736;2023-05-07T10:09:05;6.82;;;5.82;;
30647;SDS011;17683;53.360;9.736;2023-05-07T10:11:32;7.88;;;6.38;;
30647;SDS011;17683;53.360;9.736;2023-05-07T10:13:59;9.05;;;7.43;;
30647;SDS011;17683;53.360;9.736;2023-05-07T10:16:27;9.90;;;5.78;;
30647;SDS011;17683;53.360;9.736;2023-05-07T10:19:04;8.35;;;6.75;;
30647;SDS011;17683;53.360;9.736;2023-05-07T10:21:31;9.25;;;5.90;;
30647;SDS011;17683;53.360;9.736;2023-05-07T10:24:05;7.97;;;6.72;;
30647;SDS011;17683;53.360;9.736;2023-05-07T10:26:43;9.25;;;6.50;;
30647;SDS011;17683;53.360;9.736;2023-05-07T10:29:12;7.38;;;6.47;;
30647;SDS011;17683;53.360;9.736;2023-05-07T10:34:45;8.70;;;7.13;;
30647;SDS011;17683;53.360;9.736;2023-05-07T10:37:14;8.32;;;6.70;;
30647;SDS011;17683;53.360;9.736;2023-05-07T10:39:40;7.50;;;6.43;;
30647;SDS011;17683;53.360;9.736;2023-05-07T10:42:07;9.57;;;7.03;;
30647;SDS011;17683;53.360;9.736;2023-05-07T10:44:36;8.68;;;6.30;;
30647;SDS011;17683;53.360;9.736;2023-05-07T10:47:03;9.77;;;7.15;;
30647;SDS011;17683;53.360;9.736;2023-05-07T10:49:34;10.23;;;7.38;;
30647;SDS011;17683;53.360;9.736;2023-05-07T10:54:43;9.27;;;6.70;;
30647;SDS011;17683;53.360;9.736;2023-05-07T10:57:52;8.27;;;6.72;;
30647;SDS011;17683;53.360;9.736;2023-05-07T11:05:26;17.80;;;7.38;;
30647;SDS011;17683;53.360;9.736;2023-05-07T11:07:57;8.05;;;6.53;;
30647;SDS011;17683;53.360;9.736;2023-05-07T11:11:12;6.40;;;5.75;;
30647;SDS011;17683;53.360;9.736;2023-05-07T11:16:19;8.40;;;6.63;;
30647;SDS011;17683;53.360;9.736;2023-05-07T11:18:49;19.90;;;6.97;;
30647;SDS011;17683;53.360;9.736;2023-05-07T11:24:02;9.25;;;6.75;;
30647;SDS011;17683;53.360;9.736;2023-05-07T11:26:30;13.00;;;5.97;;
30647;SDS011;17683;53.360;9.736;2023-05-07T11:29:10;9.73;;;6.93;;
30647;SDS011;17683;53.360;9.736;2023-05-07T11:31:43;7.93;;;7.13;;
30647;SDS011;17683;53.360;9.736;2023-05-07T11:34:08;8.70;;;7.63;;
30647;SDS011;17683;53.360;9.736;2023-05-07T11:36:35;9.52;;;7.80;;
30647;SDS011;17683;53.360;9.736;2023-05-07T11:39:22;9.18;;;7.32;;
30647;SDS011;17683;53.360;9.736;2023-05-07T11:41:49;10.63;;;7.72;;
30647;SDS011;17683;53.360;9.736;2023-05-07T11:44:14;7.82;;;7.03;;
30647;SDS011;17683;53.360;9.736;2023-05-07T11:46:42;8.90;;;7.15;;
30647;SDS011;17683;53.360;9.736;2023-05-07T11:49:09;8.45;;;7.13;;
30647;SDS011;17683;53.360;9.736;2023-05-07T11:51:35;8.77;;;6.60;;
30647;SDS011;17683;53.360;9.736;2023-05-07T11:54:03;10.10;;;6.40;;
30647;SDS011;17683;53.360;9.736;2023-05-07T11:56:33;12.23;;;8.80;;
30647;SDS011;17683;53.360;9.736;2023-05-07T11:59:00;11.40;;;6.03;;
30647;SDS011;17683;53.360;9.736;2023-05-07T12:01:26;8.35;;;6.63;;
30647;SDS011;17683;53.360;9.736;2023-05-07T12:03:55;7.13;;;6.43;;
30647;SDS011;17683;53.360;9.736;2023-05-07T12:06:21;8.73;;;6.57;;
30647;SDS011;17683;53.360;9.736;2023-05-07T12:08:47;6.53;;;5.85;;
30647;SDS011;17683;53.360;9.736;2023-05-07T12:11:14;7.65;;;6.35;;
30647;SDS011;17683;53.360;9.736;2023-05-07T12:13:50;8.82;;;6.82;;
30647;SDS011;17683;53.360;9.736;2023-05-07T12:16:15;7.95;;;6.28;;
30647;SDS011;17683;53.360;9.736;2023-05-07T12:18:42;7.57;;;6.05;;
30647;SDS011;17683;53.360;9.736;2023-05-07T12:21:09;7.97;;;6.00;;
30647;SDS011;17683;53.360;9.736;2023-05-07T12:23:36;7.00;;;5.75;;
30647;SDS011;17683;53.360;9.736;2023-05-07T12:26:02;9.50;;;6.18;;
30647;SDS011;17683;53.360;9.736;2023-05-07T12:28:28;6.88;;;5.82;;
30647;SDS011;17683;53.360;9.736;2023-05-07T12:30:55;6.85;;;5.82;;
30647;SDS011;17683;53.360;9.736;2023-05-07T12:33:25;7.45;;;5.32;;
30647;SDS011;17683;53.360;9.736;2023-05-07T12:35:53;8.40;;;5.65;;
30647;SDS011;17683;53.360;9.736;2023-05-07T12:38:20;5.55;;;5.00;;
30647;SDS011;17683;53.360;9.736;2023-05-07T12:40:47;10.73;;;5.82;;
30647;SDS011;17683;53.360;9.736;2023-05-07T12:43:19;6.65;;;5.40;;
30647;SDS011;17683;53.360;9.736;2023-05-07T12:45:49;11.00;;;5.43;;
30647;SDS011;17683;53.360;9.736;2023-05-07T12:48:16;6.95;;;5.90;;
30647;SDS011;17683;53.360;9.736;2023-05-07T12:50:44;7.30;;;5.95;;
30647;SDS011;17683;53.360;9.736;2023-05-07T12:53:10;7.72;;;4.97;;
30647;SDS011;17683;53.360;9.736;2023-05-07T12:55:43;6.82;;;5.15;;
30647;SDS011;17683;53.360;9.736;2023-05-07T12:58:32;7.43;;;6.18;;
30647;SDS011;17683;53.360;9.736;2023-05-07T13:00:59;6.90;;;5.45;;
30647;SDS011;17683;53.360;9.736;2023-05-07T13:03:29;12.93;;;4.80;;
30647;SDS011;17683;53.360;9.736;2023-05-07T13:06:00;6.60;;;5.60;;
30647;SDS011;17683;53.360;9.736;2023-05-07T13:08:28;5.43;;;4.93;;
30647;SDS011;17683;53.360;9.736;2023-05-07T13:10:59;5.70;;;5.13;;
30647;SDS011;17683;53.360;9.736;2023-05-07T13:13:28;5.85;;;5.13;;
30647;SDS011;17683;53.360;9.736;2023-05-07T13:15:55;6.32;;;5.03;;
30647;SDS011;17683;53.360;9.736;2023-05-07T13:18:26;5.85;;;5.13;;
30647;SDS011;17683;53.360;9.736;2023-05-07T13:20:54;6.68;;;5.30;;
30647;SDS011;17683;53.360;9.736;2023-05-07T13:23:20;6.90;;;5.75;;
30647;SDS011;17683;53.360;9.736;2023-05-07T13:25:45;7.07;;;5.32;;
30647;SDS011;17683;53.360;9.736;2023-05-07T13:28:11;5.75;;;4.80;;
30647;SDS011;17683;53.360;9.736;2023-05-07T13:30:37;7.90;;;5.07;;
30647;SDS011;17683;53.360;9.736;2023-05-07T13:33:03;6.13;;;4.57;;
30647;SDS011;17683;53.360;9.736;2023-05-07T13:35:29;5.53;;;5.00;;
30647;SDS011;17683;53.360;9.736;2023-05-07T13:37:55;6.03;;;4.88;;
30647;SDS011;17683;53.360;9.736;2023-05-07T13:40:21;5.90;;;4.85;;
30647;SDS011;17683;53.360;9.736;2023-05-07T13:42:48;7.15;;;5.28;;
30647;SDS011;17683;53.360;9.736;2023-05-07T13:45:17;5.60;;;4.93;;
30647;SDS011;17683;53.360;9.736;2023-05-07T13:47:44;5.55;;;5.00;;
30647;SDS011;17683;53.360;9.736;2023-05-07T13:50:10;6.65;;;4.85;;
30647;SDS011;17683;53.360;9.736;2023-05-07T13:52:40;6.47;;;5.00;;
30647;SDS011;17683;53.360;9.736;2023-05-07T13:55:08;8.23;;;4.95;;
30647;SDS011;17683;53.360;9.736;2023-05-07T13:57:35;6.57;;;5.63;;
30647;SDS011;17683;53.360;9.736;2023-05-07T14:00:01;6.35;;;5.18;;
30647;SDS011;17683;53.360;9.736;2023-05-07T14:02:29;8.00;;;5.50;;
30647;SDS011;17683;53.360;9.736;2023-05-07T14:04:55;8.30;;;4.85;;
30647;SDS011;17683;53.360;9.736;2023-05-07T14:07:21;5.78;;;5.25;;
30647;SDS011;17683;53.360;9.736;2023-05-07T14:09:47;7.15;;;5.72;;
30647;SDS011;17683;53.360;9.736;2023-05-07T14:12:12;7.15;;;4.68;;
30647;SDS011;17683;53.360;9.736;2023-05-07T14:14:38;8.20;;;4.88;;
30647;SDS011;17683;53.360;9.736;2023-05-07T14:17:04;8.02;;;5.28;;
30647;SDS011;17683;53.360;9.736;2023-05-07T14:19:29;6.45;;;5.32;;
30647;SDS011;17683;53.360;9.736;2023-05-07T14:21:55;6.32;;;5.07;;
30647;SDS011;17683;53.360;9.736;2023-05-07T14:24:21;6.20;;;5.20;;
30647;SDS011;17683;53.360;9.736;2023-05-07T14:26:46;5.60;;;5.00;;
30647;SDS011;17683;53.360;9.736;2023-05-07T14:29:12;6.55;;;5.30;;
30647;SDS011;17683;53.360;9.736;2023-05-07T14:31:40;7.47;;;5.63;;
30647;SDS011;17683;53.360;9.736;2023-05-07T14:34:06;5.40;;;4.80;;
30647;SDS011;17683;53.360;9.736;2023-05-07T14:36:32;5.43;;;4.45;;
30647;SDS011;17683;53.360;9.736;2023-05-07T14:38:57;10.15;;;5.82;;
30647;SDS011;17683;53.360;9.736;2023-05-07T14:41:24;5.55;;;4.40;;
30647;SDS011;17683;53.360;9.736;2023-05-07T14:43:50;8.40;;;5.53;;
30647;SDS011;17683;53.360;9.736;2023-05-07T14:46:18;5.78;;;5.20;;
30647;SDS011;17683;53.360;9.736;2023-05-07T14:48:50;5.18;;;4.68;;
30647;SDS011;17683;53.360;9.736;2023-05-07T14:51:16;6.00;;;5.10;;